sensor_id;sensor_type;location;lat;lon;timestamp;pressure;altitude;pressure_sealevel;temperature;humidity
13041;BME280;6587;42.728;23.288;2024-03-08T00:00:18;95430.00;;;5.03;87.74
13041;BME280;6587;42.728;23.288;2024-03-08T00:02:45;95428.69;;;5.28;87.97
13041;BME280;6587;42.728;23.288;2024-03-08T00:05:13;95429.59;;;5.36;87.59
13041;BME280;6587;42.728;23.288;2024-03-08T00:07:41;95434.22;;;5.23;87.01
13041;BME280;6587;42.728;23.288;2024-03-08T00:10:10;95430.44;;;5.05;87.11
13041;BME280;6587;42.728;23.288;2024-03-08T00:12:37;95423.78;;;5.11;87.23
13041;BME280;6587;42.728;23.288;2024-03-08T00:15:06;95424.72;;;5.19;88.02
13041;BME280;6587;42.728;23.288;2024-03-08T00:17:33;95431.44;;;5.16;88.76
13041;BME280;6587;42.728;23.288;2024-03-08T00:20:00;95434.00;;;5.13;88.58
13041;BME280;6587;42.728;23.288;2024-03-08T00:22:29;95425.16;;;5.05;89.75
13041;BME280;6587;42.728;23.288;2024-03-08T00:24:56;95431.91;;;5.03;89.85
13041;BME280;6587;42.728;23.288;2024-03-08T00:27:22;95427.03;;;5.05;90.31
13041;BME280;6587;42.728;23.288;2024-03-08T00:29:50;95426.22;;;4.85;91.43
13041;BME280;6587;42.728;23.288;2024-03-08T00:32:18;95429.88;;;4.96;91.63
13041;BME280;6587;42.728;23.288;2024-03-08T00:34:45;95426.22;;;4.85;91.88
13041;BME280;6587;42.728;23.288;2024-03-08T00:37:12;95425.28;;;4.77;93.07
13041;BME280;6587;42.728;23.288;2024-03-08T00:39:39;95409.78;;;4.92;92.58
13041;BME280;6587;42.728;23.288;2024-03-08T00:42:06;95420.41;;;4.79;93.62
13041;BME280;6587;42.728;23.288;2024-03-08T00:44:33;95412.22;;;5.00;92.84
13041;BME280;6587;42.728;23.288;2024-03-08T00:47:00;95420.94;;;4.85;92.99
13041;BME280;6587;42.728;23.288;2024-03-08T00:49:28;95421.44;;;4.91;92.95
13041;BME280;6587;42.728;23.288;2024-03-08T00:51:56;95410.72;;;4.99;92.73
13041;BME280;6587;42.728;23.288;2024-03-08T00:54:23;95415.72;;;4.73;92.68
13041;BME280;6587;42.728;23.288;2024-03-08T00:56:50;95408.59;;;4.89;92.29
13041;BME280;6587;42.728;23.288;2024-03-08T00:59:16;95410.84;;;5.06;92.48
13041;BME280;6587;42.728;23.288;2024-03-08T01:01:43;95404.31;;;5.00;91.58
13041;BME280;6587;42.728;23.288;2024-03-08T01:04:10;95411.03;;;5.13;91.71
13041;BME280;6587;42.728;23.288;2024-03-08T01:06:38;95408.13;;;5.18;91.33
13041;BME280;6587;42.728;23.288;2024-03-08T01:09:05;95398.94;;;5.12;92.29
13041;BME280;6587;42.728;23.288;2024-03-08T01:11:33;95397.09;;;4.97;91.86
13041;BME280;6587;42.728;23.288;2024-03-08T01:14:00;95397.28;;;5.04;92.37
13041;BME280;6587;42.728;23.288;2024-03-08T01:16:27;95392.75;;;4.89;91.95
13041;BME280;6587;42.728;23.288;2024-03-08T01:18:53;95390.81;;;4.86;91.86
13041;BME280;6587;42.728;23.288;2024-03-08T01:21:20;95391.66;;;4.90;91.92
13041;BME280;6587;42.728;23.288;2024-03-08T01:23:49;95394.81;;;4.96;91.97
13041;BME280;6587;42.728;23.288;2024-03-08T01:26:16;95385.38;;;4.95;91.43
13041;BME280;6587;42.728;23.288;2024-03-08T01:28:42;95386.78;;;5.08;92.16
13041;BME280;6587;42.728;23.288;2024-03-08T01:31:09;95382.69;;;5.10;91.49
13041;BME280;6587;42.728;23.288;2024-03-08T01:33:37;95382.00;;;5.13;91.58
13041;BME280;6587;42.728;23.288;2024-03-08T01:36:05;95379.19;;;5.06;91.29
13041;BME280;6587;42.728;23.288;2024-03-08T01:38:32;95373.63;;;4.92;91.35
13041;BME280;6587;42.728;23.288;2024-03-08T01:41:00;95377.59;;;5.02;91.88
13041;BME280;6587;42.728;23.288;2024-03-08T01:43:29;95370.50;;;4.87;90.07
13041;BME280;6587;42.728;23.288;2024-03-08T01:45:57;95377.81;;;5.12;89.47
13041;BME280;6587;42.728;23.288;2024-03-08T01:48:25;95374.53;;;5.00;88.91
13041;BME280;6587;42.728;23.288;2024-03-08T01:50:53;95366.09;;;5.10;89.82
13041;BME280;6587;42.728;23.288;2024-03-08T01:53:21;95378.13;;;5.07;89.76
13041;BME280;6587;42.728;23.288;2024-03-08T01:55:49;95373.50;;;5.20;89.26
13041;BME280;6587;42.728;23.288;2024-03-08T01:58:18;95372.84;;;5.26;88.67
13041;BME280;6587;42.728;23.288;2024-03-08T02:00:46;95371.72;;;5.08;89.10
13041;BME280;6587;42.728;23.288;2024-03-08T02:03:14;95365.84;;;5.15;88.01
13041;BME280;6587;42.728;23.288;2024-03-08T02:05:42;95366.44;;;5.08;88.75
13041;BME280;6587;42.728;23.288;2024-03-08T02:08:10;95363.38;;;5.06;88.24
13041;BME280;6587;42.728;23.288;2024-03-08T02:10:40;95369.78;;;5.05;88.76
13041;BME280;6587;42.728;23.288;2024-03-08T02:13:07;95367.81;;;5.02;88.60
13041;BME280;6587;42.728;23.288;2024-03-08T02:15:52;95362.47;;;4.99;88.34
13041;BME280;6587;42.728;23.288;2024-03-08T02:18:19;95368.28;;;4.89;88.27
13041;BME280;6587;42.728;23.288;2024-03-08T02:20:47;95372.22;;;4.98;87.62
13041;BME280;6587;42.728;23.288;2024-03-08T02:23:14;95376.94;;;4.89;87.16
13041;BME280;6587;42.728;23.288;2024-03-08T02:25:41;95372.94;;;4.95;86.91
13041;BME280;6587;42.728;23.288;2024-03-08T02:28:09;95368.78;;;4.94;85.94
13041;BME280;6587;42.728;23.288;2024-03-08T02:30:36;95370.72;;;4.97;86.29
13041;BME280;6587;42.728;23.288;2024-03-08T02:33:04;95371.56;;;5.01;86.17
13041;BME280;6587;42.728;23.288;2024-03-08T02:35:32;95376.06;;;5.01;86.54
13041;BME280;6587;42.728;23.288;2024-03-08T02:38:00;95376.78;;;4.98;85.93
13041;BME280;6587;42.728;23.288;2024-03-08T02:40:29;95372.94;;;4.95;85.36
13041;BME280;6587;42.728;23.288;2024-03-08T02:42:56;95376.19;;;4.89;85.18
13041;BME280;6587;42.728;23.288;2024-03-08T02:45:22;95377.88;;;4.81;85.55
13041;BME280;6587;42.728;23.288;2024-03-08T02:47:50;95375.69;;;4.83;85.88
13041;BME280;6587;42.728;23.288;2024-03-08T02:50:17;95378.41;;;4.87;86.31
13041;BME280;6587;42.728;23.288;2024-03-08T02:52:43;95385.97;;;4.88;86.19
13041;BME280;6587;42.728;23.288;2024-03-08T02:55:13;95381.38;;;4.85;86.70
13041;BME280;6587;42.728;23.288;2024-03-08T02:57:42;95380.03;;;4.75;87.12
13041;BME280;6587;42.728;23.288;2024-03-08T03:00:10;95371.44;;;4.63;87.62
13041;BME280;6587;42.728;23.288;2024-03-08T03:02:38;95379.59;;;4.73;87.22
13041;BME280;6587;42.728;23.288;2024-03-08T03:05:05;95372.28;;;4.67;87.22
13041;BME280;6587;42.728;23.288;2024-03-08T03:07:33;95385.22;;;4.72;87.72
13041;BME280;6587;42.728;23.288;2024-03-08T03:09:59;95382.09;;;4.66;87.60
13041;BME280;6587;42.728;23.288;2024-03-08T03:12:29;95385.81;;;4.50;87.12
13041;BME280;6587;42.728;23.288;2024-03-08T03:14:56;95379.94;;;4.41;87.23
13041;BME280;6587;42.728;23.288;2024-03-08T03:17:23;95377.81;;;4.62;86.26
13041;BME280;6587;42.728;23.288;2024-03-08T03:19:50;95393.72;;;4.65;85.07
13041;BME280;6587;42.728;23.288;2024-03-08T03:22:17;95394.25;;;4.71;84.79
13041;BME280;6587;42.728;23.288;2024-03-08T03:24:44;95392.53;;;4.78;84.99
13041;BME280;6587;42.728;23.288;2024-03-08T03:27:11;95387.94;;;4.60;84.31
13041;BME280;6587;42.728;23.288;2024-03-08T03:29:40;95399.91;;;4.73;84.07
13041;BME280;6587;42.728;23.288;2024-03-08T03:32:07;95404.00;;;4.86;83.78
13041;BME280;6587;42.728;23.288;2024-03-08T03:34:34;95403.06;;;4.63;82.91
13041;BME280;6587;42.728;23.288;2024-03-08T03:37:02;95400.44;;;4.78;82.65
13041;BME280;6587;42.728;23.288;2024-03-08T03:39:30;95400.00;;;4.76;81.74
13041;BME280;6587;42.728;23.288;2024-03-08T03:41:58;95412.16;;;4.65;82.24
13041;BME280;6587;42.728;23.288;2024-03-08T03:44:24;95410.97;;;4.78;80.36
13041;BME280;6587;42.728;23.288;2024-03-08T03:46:53;95413.19;;;4.92;80.05
13041;BME280;6587;42.728;23.288;2024-03-08T03:49:20;95416.94;;;4.60;79.20
13041;BME280;6587;42.728;23.288;2024-03-08T03:51:46;95422.91;;;4.57;80.05
13041;BME280;6587;42.728;23.288;2024-03-08T03:54:13;95419.56;;;4.60;80.42
13041;BME280;6587;42.728;23.288;2024-03-08T03:56:40;95417.09;;;4.51;80.45
13041;BME280;6587;42.728;23.288;2024-03-08T03:59:07;95425.34;;;4.50;80.44
13041;BME280;6587;42.728;23.288;2024-03-08T04:01:34;95421.78;;;4.58;79.16
13041;BME280;6587;42.728;23.288;2024-03-08T04:04:02;95431.72;;;4.49;78.99
13041;BME280;6587;42.728;23.288;2024-03-08T04:06:30;95430.03;;;4.56;78.85
13041;BME280;6587;42.728;23.288;2024-03-08T04:08:57;95426.91;;;4.51;79.91
13041;BME280;6587;42.728;23.288;2024-03-08T04:11:24;95433.34;;;4.53;79.96
13041;BME280;6587;42.728;23.288;2024-03-08T04:13:51;95433.75;;;4.40;80.90
13041;BME280;6587;42.728;23.288;2024-03-08T04:16:18;95438.97;;;4.52;81.22
13041;BME280;6587;42.728;23.288;2024-03-08T04:18:45;95449.63;;;4.28;80.94
13041;BME280;6587;42.728;23.288;2024-03-08T04:21:13;95432.22;;;4.39;81.58
13041;BME280;6587;42.728;23.288;2024-03-08T04:23:41;95446.44;;;4.50;81.91
13041;BME280;6587;42.728;23.288;2024-03-08T04:26:10;95450.34;;;4.13;81.62
13041;BME280;6587;42.728;23.288;2024-03-08T04:28:37;95444.28;;;4.24;82.18
13041;BME280;6587;42.728;23.288;2024-03-08T04:31:04;95454.25;;;4.46;82.42
13041;BME280;6587;42.728;23.288;2024-03-08T04:33:32;95441.59;;;4.52;81.50
13041;BME280;6587;42.728;23.288;2024-03-08T04:36:01;95455.94;;;4.39;82.33
13041;BME280;6587;42.728;23.288;2024-03-08T04:38:31;95460.22;;;4.59;81.98
13041;BME280;6587;42.728;23.288;2024-03-08T04:40:58;95464.38;;;4.44;82.02
13041;BME280;6587;42.728;23.288;2024-03-08T04:43:28;95467.81;;;4.33;83.17
13041;BME280;6587;42.728;23.288;2024-03-08T04:45:55;95467.16;;;4.36;83.41
13041;BME280;6587;42.728;23.288;2024-03-08T04:48:22;95471.28;;;4.21;83.05
13041;BME280;6587;42.728;23.288;2024-03-08T04:50:52;95471.03;;;4.26;84.33
13041;BME280;6587;42.728;23.288;2024-03-08T04:53:19;95463.81;;;4.23;84.16
13041;BME280;6587;42.728;23.288;2024-03-08T04:55:47;95467.66;;;4.26;83.18
13041;BME280;6587;42.728;23.288;2024-03-08T04:58:14;95466.09;;;4.25;84.40
13041;BME280;6587;42.728;23.288;2024-03-08T05:00:42;95476.38;;;4.14;84.46
13041;BME280;6587;42.728;23.288;2024-03-08T05:03:08;95484.78;;;4.20;84.41
13041;BME280;6587;42.728;23.288;2024-03-08T05:05:35;95482.59;;;4.22;85.14
13041;BME280;6587;42.728;23.288;2024-03-08T05:08:02;95490.81;;;4.20;85.49
13041;BME280;6587;42.728;23.288;2024-03-08T05:10:30;95492.34;;;3.94;85.52
13041;BME280;6587;42.728;23.288;2024-03-08T05:12:59;95492.97;;;4.03;86.55
13041;BME280;6587;42.728;23.288;2024-03-08T05:15:26;95491.63;;;4.09;87.20
13041;BME280;6587;42.728;23.288;2024-03-08T05:17:53;95474.91;;;4.17;86.69
13041;BME280;6587;42.728;23.288;2024-03-08T05:20:21;95496.63;;;4.26;85.98
13041;BME280;6587;42.728;23.288;2024-03-08T05:22:48;95502.78;;;4.45;86.45
13041;BME280;6587;42.728;23.288;2024-03-08T05:25:15;95504.94;;;4.28;85.52
13041;BME280;6587;42.728;23.288;2024-03-08T05:27:43;95500.00;;;4.26;86.25
13041;BME280;6587;42.728;23.288;2024-03-08T05:30:10;95506.56;;;4.32;85.85
13041;BME280;6587;42.728;23.288;2024-03-08T05:32:40;95517.75;;;4.41;86.63
13041;BME280;6587;42.728;23.288;2024-03-08T05:35:10;95516.31;;;4.44;86.10
13041;BME280;6587;42.728;23.288;2024-03-08T05:37:38;95520.13;;;4.46;86.61
13041;BME280;6587;42.728;23.288;2024-03-08T05:40:07;95527.63;;;4.44;85.78
13041;BME280;6587;42.728;23.288;2024-03-08T05:42:35;95532.13;;;4.44;86.71
13041;BME280;6587;42.728;23.288;2024-03-08T05:45:03;95536.28;;;4.45;85.89
13041;BME280;6587;42.728;23.288;2024-03-08T05:47:33;95535.66;;;4.36;86.46
13041;BME280;6587;42.728;23.288;2024-03-08T05:49:59;95541.81;;;4.40;86.77
13041;BME280;6587;42.728;23.288;2024-03-08T05:52:27;95543.34;;;4.41;87.18
13041;BME280;6587;42.728;23.288;2024-03-08T05:54:54;95551.38;;;4.32;86.73
13041;BME280;6587;42.728;23.288;2024-03-08T05:57:20;95557.53;;;4.36;86.26
13041;BME280;6587;42.728;23.288;2024-03-08T05:59:48;95554.66;;;4.41;86.58
13041;BME280;6587;42.728;23.288;2024-03-08T06:02:15;95553.16;;;4.28;86.11
13041;BME280;6587;42.728;23.288;2024-03-08T06:04:46;95561.19;;;4.20;87.24
13041;BME280;6587;42.728;23.288;2024-03-08T06:07:13;95553.94;;;4.17;87.21
13041;BME280;6587;42.728;23.288;2024-03-08T06:09:40;95563.25;;;4.26;87.18
13041;BME280;6587;42.728;23.288;2024-03-08T06:12:10;95562.25;;;4.31;87.57
13041;BME280;6587;42.728;23.288;2024-03-08T06:14:44;95560.78;;;4.45;87.30
13041;BME280;6587;42.728;23.288;2024-03-08T06:17:11;95556.78;;;4.51;86.68
13041;BME280;6587;42.728;23.288;2024-03-08T06:19:37;95566.88;;;4.61;86.22
13041;BME280;6587;42.728;23.288;2024-03-08T06:22:06;95566.97;;;4.65;86.31
13041;BME280;6587;42.728;23.288;2024-03-08T06:24:34;95579.28;;;4.33;85.17
13041;BME280;6587;42.728;23.288;2024-03-08T06:27:03;95573.09;;;4.41;86.39
13041;BME280;6587;42.728;23.288;2024-03-08T06:29:29;95572.56;;;4.63;85.75
13041;BME280;6587;42.728;23.288;2024-03-08T06:31:56;95575.72;;;4.69;84.81
13041;BME280;6587;42.728;23.288;2024-03-08T06:34:23;95577.88;;;4.79;84.79
13041;BME280;6587;42.728;23.288;2024-03-08T06:36:50;95575.25;;;4.79;83.94
13041;BME280;6587;42.728;23.288;2024-03-08T06:39:19;95579.22;;;4.73;85.07
13041;BME280;6587;42.728;23.288;2024-03-08T06:41:46;95584.44;;;4.85;84.56
13041;BME280;6587;42.728;23.288;2024-03-08T06:44:12;95579.59;;;4.87;84.23
13041;BME280;6587;42.728;23.288;2024-03-08T06:46:39;95579.50;;;4.83;84.32
13041;BME280;6587;42.728;23.288;2024-03-08T06:49:06;95583.13;;;5.07;84.14
13041;BME280;6587;42.728;23.288;2024-03-08T06:51:34;95589.09;;;5.19;83.17
13041;BME280;6587;42.728;23.288;2024-03-08T06:54:01;95584.50;;;5.16;83.08
13041;BME280;6587;42.728;23.288;2024-03-08T06:56:35;95592.66;;;5.11;82.02
13041;BME280;6587;42.728;23.288;2024-03-08T06:59:02;95591.88;;;5.11;82.49
13041;BME280;6587;42.728;23.288;2024-03-08T07:01:28;95584.22;;;5.06;83.66
13041;BME280;6587;42.728;23.288;2024-03-08T07:03:57;95587.97;;;5.20;83.90
13041;BME280;6587;42.728;23.288;2024-03-08T07:06:25;95594.03;;;5.36;82.67
13041;BME280;6587;42.728;23.288;2024-03-08T07:08:51;95602.03;;;5.24;82.36
13041;BME280;6587;42.728;23.288;2024-03-08T07:11:18;95595.41;;;5.46;82.13
13041;BME280;6587;42.728;23.288;2024-03-08T07:13:46;95597.69;;;5.32;80.96
13041;BME280;6587;42.728;23.288;2024-03-08T07:16:13;95602.34;;;5.07;81.65
13041;BME280;6587;42.728;23.288;2024-03-08T07:18:41;95605.59;;;5.32;81.07
13041;BME280;6587;42.728;23.288;2024-03-08T07:21:08;95602.72;;;5.37;80.95
13041;BME280;6587;42.728;23.288;2024-03-08T07:23:35;95597.84;;;5.39;80.31
13041;BME280;6587;42.728;23.288;2024-03-08T07:26:28;95601.34;;;5.58;81.05
13041;BME280;6587;42.728;23.288;2024-03-08T07:28:57;95601.59;;;5.53;79.96
13041;BME280;6587;42.728;23.288;2024-03-08T07:31:26;95602.72;;;5.52;80.32
13041;BME280;6587;42.728;23.288;2024-03-08T07:34:03;95602.88;;;5.59;80.43
13041;BME280;6587;42.728;23.288;2024-03-08T07:36:32;95603.22;;;5.73;80.62
13041;BME280;6587;42.728;23.288;2024-03-08T07:38:59;95601.09;;;5.79;80.11
13041;BME280;6587;42.728;23.288;2024-03-08T07:41:26;95609.13;;;5.82;79.06
13041;BME280;6587;42.728;23.288;2024-03-08T07:43:53;95608.59;;;5.77;79.55
13041;BME280;6587;42.728;23.288;2024-03-08T07:46:21;95608.69;;;5.96;79.47
13041;BME280;6587;42.728;23.288;2024-03-08T07:48:48;95614.78;;;6.00;78.19
13041;BME280;6587;42.728;23.288;2024-03-08T07:51:16;95607.06;;;5.91;78.30
13041;BME280;6587;42.728;23.288;2024-03-08T07:53:43;95614.75;;;6.15;78.11
13041;BME280;6587;42.728;23.288;2024-03-08T07:56:10;95609.63;;;6.22;77.01
13041;BME280;6587;42.728;23.288;2024-03-08T07:58:39;95606.41;;;6.48;76.13
13041;BME280;6587;42.728;23.288;2024-03-08T08:01:06;95607.25;;;6.71;73.35
13041;BME280;6587;42.728;23.288;2024-03-08T08:03:35;95600.69;;;6.84;72.21
13041;BME280;6587;42.728;23.288;2024-03-08T08:06:03;95600.97;;;6.98;73.12
13041;BME280;6587;42.728;23.288;2024-03-08T08:08:30;95605.28;;;7.29;71.96
13041;BME280;6587;42.728;23.288;2024-03-08T08:10:57;95604.97;;;7.11;71.71
13041;BME280;6587;42.728;23.288;2024-03-08T08:13:24;95596.38;;;7.18;71.52
13041;BME280;6587;42.728;23.288;2024-03-08T08:15:53;95598.75;;;7.23;70.04
13041;BME280;6587;42.728;23.288;2024-03-08T08:18:20;95601.16;;;7.31;70.40
13041;BME280;6587;42.728;23.288;2024-03-08T08:20:51;95599.22;;;7.51;70.81
13041;BME280;6587;42.728;23.288;2024-03-08T08:23:18;95593.78;;;7.89;67.46
13041;BME280;6587;42.728;23.288;2024-03-08T08:25:45;95595.09;;;7.76;69.11
13041;BME280;6587;42.728;23.288;2024-03-08T08:28:15;95596.22;;;8.01;67.77
13041;BME280;6587;42.728;23.288;2024-03-08T08:30:43;95597.09;;;8.09;66.02
13041;BME280;6587;42.728;23.288;2024-03-08T08:33:10;95603.47;;;7.78;65.14
13041;BME280;6587;42.728;23.288;2024-03-08T08:35:37;95605.56;;;7.69;64.69
13041;BME280;6587;42.728;23.288;2024-03-08T08:38:05;95605.50;;;8.40;66.10
13041;BME280;6587;42.728;23.288;2024-03-08T08:40:32;95607.97;;;8.56;64.93
13041;BME280;6587;42.728;23.288;2024-03-08T08:43:01;95600.72;;;9.15;62.71
13041;BME280;6587;42.728;23.288;2024-03-08T08:45:30;95607.06;;;9.47;63.02
13041;BME280;6587;42.728;23.288;2024-03-08T08:47:57;95600.53;;;9.34;62.22
13041;BME280;6587;42.728;23.288;2024-03-08T08:50:25;95600.84;;;9.29;63.24
13041;BME280;6587;42.728;23.288;2024-03-08T08:52:53;95597.75;;;9.64;63.64
13041;BME280;6587;42.728;23.288;2024-03-08T08:55:22;95599.41;;;9.83;61.42
13041;BME280;6587;42.728;23.288;2024-03-08T08:57:51;95587.03;;;10.04;62.05
13041;BME280;6587;42.728;23.288;2024-03-08T09:00:18;95595.25;;;9.38;61.24
13041;BME280;6587;42.728;23.288;2024-03-08T09:02:46;95590.34;;;9.43;61.92
13041;BME280;6587;42.728;23.288;2024-03-08T09:05:13;95592.28;;;8.73;63.41
13041;BME280;6587;42.728;23.288;2024-03-08T09:07:42;95598.16;;;8.30;63.75
13041;BME280;6587;42.728;23.288;2024-03-08T09:10:11;95598.00;;;8.20;64.02
13041;BME280;6587;42.728;23.288;2024-03-08T09:12:41;95594.03;;;8.33;65.44
13041;BME280;6587;42.728;23.288;2024-03-08T09:15:08;95585.91;;;8.48;65.04
13041;BME280;6587;42.728;23.288;2024-03-08T09:17:36;95586.28;;;8.80;63.08
13041;BME280;6587;42.728;23.288;2024-03-08T09:20:06;95576.31;;;9.46;62.61
13041;BME280;6587;42.728;23.288;2024-03-08T09:22:34;95580.69;;;9.69;60.72
13041;BME280;6587;42.728;23.288;2024-03-08T09:25:01;95587.56;;;9.73;60.38
13041;BME280;6587;42.728;23.288;2024-03-08T09:27:30;95579.94;;;9.72;62.28
13041;BME280;6587;42.728;23.288;2024-03-08T09:29:58;95582.66;;;10.33;60.36
13041;BME280;6587;42.728;23.288;2024-03-08T09:32:25;95586.44;;;10.25;57.90
13041;BME280;6587;42.728;23.288;2024-03-08T09:34:52;95583.31;;;10.12;60.10
13041;BME280;6587;42.728;23.288;2024-03-08T09:37:19;95585.63;;;10.96;58.99
13041;BME280;6587;42.728;23.288;2024-03-08T09:39:46;95587.47;;;10.85;57.61
13041;BME280;6587;42.728;23.288;2024-03-08T09:42:15;95584.00;;;10.06;56.42
13041;BME280;6587;42.728;23.288;2024-03-08T09:44:44;95589.84;;;10.25;57.20
13041;BME280;6587;42.728;23.288;2024-03-08T09:47:14;95579.34;;;10.53;58.04
13041;BME280;6587;42.728;23.288;2024-03-08T09:49:41;95584.44;;;10.90;56.62
13041;BME280;6587;42.728;23.288;2024-03-08T09:52:09;95578.72;;;10.88;57.26
13041;BME280;6587;42.728;23.288;2024-03-08T09:54:37;95586.38;;;11.00;58.45
13041;BME280;6587;42.728;23.288;2024-03-08T09:57:04;95586.81;;;11.23;54.19
13041;BME280;6587;42.728;23.288;2024-03-08T09:59:33;95593.34;;;11.50;55.36
13041;BME280;6587;42.728;23.288;2024-03-08T10:02:17;95590.66;;;11.43;55.69
13041;BME280;6587;42.728;23.288;2024-03-08T10:04:44;95586.88;;;11.93;54.09
13041;BME280;6587;42.728;23.288;2024-03-08T10:07:14;95578.28;;;10.72;56.13
13041;BME280;6587;42.728;23.288;2024-03-08T10:09:41;95589.38;;;10.88;56.89
13041;BME280;6587;42.728;23.288;2024-03-08T10:12:12;95588.78;;;11.86;53.24
13041;BME280;6587;42.728;23.288;2024-03-08T10:14:40;95581.13;;;11.21;50.72
13041;BME280;6587;42.728;23.288;2024-03-08T10:17:07;95586.50;;;10.39;55.57
13041;BME280;6587;42.728;23.288;2024-03-08T10:19:35;95573.13;;;11.21;53.34
13041;BME280;6587;42.728;23.288;2024-03-08T10:22:02;95579.28;;;11.74;52.54
13041;BME280;6587;42.728;23.288;2024-03-08T10:24:30;95573.19;;;11.70;54.83
13041;BME280;6587;42.728;23.288;2024-03-08T10:26:59;95582.97;;;11.13;53.34
13041;BME280;6587;42.728;23.288;2024-03-08T10:29:30;95579.22;;;11.29;52.58
13041;BME280;6587;42.728;23.288;2024-03-08T10:31:57;95576.59;;;11.60;52.67
13041;BME280;6587;42.728;23.288;2024-03-08T10:34:26;95567.44;;;11.68;52.31
13041;BME280;6587;42.728;23.288;2024-03-08T10:36:59;95576.94;;;11.38;52.21
13041;BME280;6587;42.728;23.288;2024-03-08T10:39:34;95568.44;;;10.83;53.14
13041;BME280;6587;42.728;23.288;2024-03-08T10:42:03;95562.56;;;10.39;54.93
13041;BME280;6587;42.728;23.288;2024-03-08T10:44:43;95561.59;;;10.82;54.88
13041;BME280;6587;42.728;23.288;2024-03-08T10:47:18;95563.03;;;10.65;54.74
13041;BME280;6587;42.728;23.288;2024-03-08T10:49:54;95559.53;;;9.83;55.18
13041;BME280;6587;42.728;23.288;2024-03-08T10:52:22;95561.41;;;9.79;56.65
13041;BME280;6587;42.728;23.288;2024-03-08T10:54:49;95559.13;;;10.38;55.82
13041;BME280;6587;42.728;23.288;2024-03-08T10:57:19;95556.59;;;9.98;55.49
13041;BME280;6587;42.728;23.288;2024-03-08T10:59:49;95561.25;;;10.12;55.29
13041;BME280;6587;42.728;23.288;2024-03-08T11:02:17;95550.28;;;11.48;52.87
13041;BME280;6587;42.728;23.288;2024-03-08T11:04:48;95548.78;;;12.07;51.69
13041;BME280;6587;42.728;23.288;2024-03-08T11:07:15;95543.06;;;11.87;51.76
13041;BME280;6587;42.728;23.288;2024-03-08T11:09:47;95538.41;;;12.26;50.12
13041;BME280;6587;42.728;23.288;2024-03-08T11:12:25;95533.91;;;11.95;51.07
13041;BME280;6587;42.728;23.288;2024-03-08T11:14:55;95536.47;;;12.44;51.04
13041;BME280;6587;42.728;23.288;2024-03-08T11:17:39;95535.69;;;13.30;48.97
13041;BME280;6587;42.728;23.288;2024-03-08T11:20:11;95536.03;;;12.63;48.20
13041;BME280;6587;42.728;23.288;2024-03-08T11:22:42;95536.22;;;11.79;48.64
13041;BME280;6587;42.728;23.288;2024-03-08T11:25:34;95534.16;;;12.50;50.21
13041;BME280;6587;42.728;23.288;2024-03-08T11:28:15;95527.13;;;12.88;48.75
13041;BME280;6587;42.728;23.288;2024-03-08T11:30:47;95530.66;;;13.87;47.21
13041;BME280;6587;42.728;23.288;2024-03-08T11:33:35;95526.53;;;14.16;44.11
13041;BME280;6587;42.728;23.288;2024-03-08T11:36:03;95518.97;;;13.67;45.51
13041;BME280;6587;42.728;23.288;2024-03-08T11:38:40;95520.53;;;13.10;48.06
13041;BME280;6587;42.728;23.288;2024-03-08T11:41:08;95514.19;;;13.41;47.90
13041;BME280;6587;42.728;23.288;2024-03-08T11:43:38;95515.91;;;12.34;49.79
13041;BME280;6587;42.728;23.288;2024-03-08T11:46:10;95516.78;;;11.96;51.33
13041;BME280;6587;42.728;23.288;2024-03-08T11:48:38;95515.25;;;11.85;51.40
13041;BME280;6587;42.728;23.288;2024-03-08T11:51:07;95517.53;;;11.83;50.76
13041;BME280;6587;42.728;23.288;2024-03-08T11:53:34;95520.47;;;12.37;50.80
13041;BME280;6587;42.728;23.288;2024-03-08T11:56:09;95516.31;;;14.45;46.59
13041;BME280;6587;42.728;23.288;2024-03-08T11:58:36;95515.53;;;16.04;43.31
13041;BME280;6587;42.728;23.288;2024-03-08T12:01:04;95515.38;;;16.34;42.41
13041;BME280;6587;42.728;23.288;2024-03-08T12:03:32;95505.44;;;16.11;40.89
13041;BME280;6587;42.728;23.288;2024-03-08T12:06:00;95511.50;;;17.29;40.39
13041;BME280;6587;42.728;23.288;2024-03-08T12:08:30;95509.06;;;16.63;41.23
13041;BME280;6587;42.728;23.288;2024-03-08T12:10:57;95516.63;;;16.29;42.55
13041;BME280;6587;42.728;23.288;2024-03-08T12:13:27;95512.28;;;17.94;39.15
13041;BME280;6587;42.728;23.288;2024-03-08T12:15:56;95492.56;;;18.13;38.30
13041;BME280;6587;42.728;23.288;2024-03-08T12:18:24;95506.75;;;18.01;39.22
13041;BME280;6587;42.728;23.288;2024-03-08T12:20:54;95506.94;;;18.38;37.45
13041;BME280;6587;42.728;23.288;2024-03-08T12:23:31;95503.66;;;19.26;37.80
13041;BME280;6587;42.728;23.288;2024-03-08T12:26:09;95506.31;;;18.31;36.28
13041;BME280;6587;42.728;23.288;2024-03-08T12:28:40;95507.75;;;17.59;38.30
13041;BME280;6587;42.728;23.288;2024-03-08T12:31:07;95507.16;;;18.28;38.07
13041;BME280;6587;42.728;23.288;2024-03-08T12:33:37;95498.19;;;18.76;36.67
13041;BME280;6587;42.728;23.288;2024-03-08T12:36:04;95500.00;;;18.66;36.58
13041;BME280;6587;42.728;23.288;2024-03-08T12:38:33;95496.03;;;20.30;34.87
13041;BME280;6587;42.728;23.288;2024-03-08T12:41:01;95485.69;;;19.82;33.94
13041;BME280;6587;42.728;23.288;2024-03-08T12:43:30;95483.84;;;18.79;35.16
13041;BME280;6587;42.728;23.288;2024-03-08T12:45:58;95487.78;;;18.04;36.70
13041;BME280;6587;42.728;23.288;2024-03-08T12:48:26;95486.53;;;18.66;36.51
13041;BME280;6587;42.728;23.288;2024-03-08T12:50:53;95485.88;;;17.89;36.24
13041;BME280;6587;42.728;23.288;2024-03-08T12:53:20;95480.63;;;18.42;36.47
13041;BME280;6587;42.728;23.288;2024-03-08T12:55:49;95487.16;;;18.70;37.36
13041;BME280;6587;42.728;23.288;2024-03-08T12:58:16;95481.38;;;19.72;35.93
13041;BME280;6587;42.728;23.288;2024-03-08T13:00:43;95477.00;;;19.53;33.92
13041;BME280;6587;42.728;23.288;2024-03-08T13:03:12;95475.22;;;19.71;33.84
13041;BME280;6587;42.728;23.288;2024-03-08T13:05:39;95475.13;;;19.00;34.63
13041;BME280;6587;42.728;23.288;2024-03-08T13:08:08;95472.13;;;19.48;33.86
13041;BME280;6587;42.728;23.288;2024-03-08T13:10:38;95475.22;;;20.18;32.66
13041;BME280;6587;42.728;23.288;2024-03-08T13:13:06;95468.00;;;20.02;32.43